Time;durP1;ratioP1;P1;durP2;ratioP2;P2;SDS_P1;SDS_P2;PMS_P1;PMS_P2;Temp;Humidity;BMP_temperature;BMP_pressure;BME280_temperature;BME280_humidity;BME280_pressure;Samples;Min_cycle;Max_cycle;Signal;HPM_P1;HPM_P2
2023/07/13 17:11:16;;;;;;;4.03;2.38;;;;;;;21.91;57.09;101696.03;5082599;27;20400;-59
2023/07/13 17:13:42;;;;;;;3.70;1.88;;;;;;;21.92;57.21;101700.47;5068790;28;20041;-58
2023/07/13 17:16:09;;;;;;;6.50;2.50;;;;;;;21.92;56.42;101701.31;5073226;28;20077;-58
2023/07/13 17:18:37;;;;;;;5.05;2.60;;;;;;;21.92;56.41;101703.19;5049967;28;20033;-59
2023/07/13 17:21:12;;;;;;;10.32;2.58;;;;;;;21.93;56.70;101697.56;5065779;28;20039;-59
2023/07/13 17:23:39;;;;;;;5.78;2.20;;;;;;;21.96;56.75;101701.88;5074078;28;20104;-59
2023/07/13 17:26:04;;;;;;;5.28;2.42;;;;;;;21.98;56.76;101695.28;5069474;28;20056;-59
2023/07/13 17:28:30;;;;;;;9.65;2.55;;;;;;;22.00;57.11;101706.81;5070205;28;20631;-59
2023/07/13 17:30:57;;;;;;;6.88;2.67;;;;;;;22.02;56.73;101695.81;5075709;28;20026;-59
2023/07/13 17:33:31;;;;;;;4.15;2.58;;;;;;;22.04;56.63;101699.22;5075414;28;20029;-59
2023/07/13 17:35:58;;;;;;;7.45;2.75;;;;;;;22.05;56.43;101695.53;5069542;28;20405;-59
2023/07/13 17:38:30;;;;;;;10.65;2.67;;;;;;;22.08;56.37;101700.63;5069676;28;20036;-59
2023/07/13 17:40:55;;;;;;;6.65;2.63;;;;;;;22.09;56.49;101702.34;5070499;28;20048;-59
2023/07/13 17:43:22;;;;;;;7.50;2.65;;;;;;;22.11;55.90;101704.91;5053914;28;20063;-59
2023/07/13 17:45:48;;;;;;;6.72;2.60;;;;;;;22.14;56.34;101701.88;5070073;28;20044;-59
2023/07/13 17:48:13;;;;;;;6.07;2.65;;;;;;;22.16;56.06;101703.47;5068447;28;20040;-59
2023/07/13 17:50:44;;;;;;;9.00;2.70;;;;;;;22.18;56.51;101698.72;5072363;28;20425;-61
2023/07/13 17:53:16;;;;;;;7.67;2.67;;;;;;;22.19;56.04;101708.56;5074706;28;20045;-61
2023/07/13 17:55:42;;;;;;;5.68;2.67;;;;;;;22.20;56.12;101703.97;5071862;28;20041;-61
2023/07/13 17:58:07;;;;;;;7.45;2.92;;;;;;;22.19;55.52;101700.41;5073666;28;20456;-62
2023/07/13 18:00:40;;;;;;;5.68;2.33;;;;;;;22.18;55.94;101701.44;5072327;28;20395;-61
2023/07/13 18:03:13;;;;;;;4.22;2.40;;;;;;;22.19;55.57;101703.13;5076126;28;20031;-61
2023/07/13 18:05:39;;;;;;;5.65;2.40;;;;;;;22.19;55.64;101713.13;5068885;28;20050;-61
2023/07/13 18:08:06;;;;;;;6.57;2.53;;;;;;;22.19;55.39;101696.84;5075063;28;20040;-61
2023/07/13 18:10:33;;;;;;;6.95;2.78;;;;;;;22.19;55.74;101703.13;5070237;28;20494;-61
2023/07/13 18:13:00;;;;;;;9.63;2.78;;;;;;;22.20;55.43;101714.81;5074993;28;20476;-61
2023/07/13 18:15:29;;;;;;;6.80;2.30;;;;;;;22.19;56.00;101716.69;5072747;28;20119;-61
2023/07/13 18:17:55;;;;;;;8.45;2.53;;;;;;;22.19;55.64;101716.69;5070917;28;20364;-61
2023/07/13 18:20:21;;;;;;;4.55;2.67;;;;;;;22.19;56.15;101721.28;5071602;28;20025;-61
2023/07/13 18:22:52;;;;;;;6.35;2.55;;;;;;;22.21;56.65;101722.81;5058951;28;20048;-61
2023/07/13 18:25:22;;;;;;;6.07;2.70;;;;;;;22.22;56.13;101718.25;5057253;28;20475;-61
2023/07/13 18:27:48;;;;;;;9.53;2.70;;;;;;;22.23;56.00;101717.25;5059678;28;20104;-61
2023/07/13 18:30:16;;;;;;;7.32;3.08;;;;;;;22.21;55.79;101721.97;5056450;28;20413;-61
2023/07/13 18:32:47;;;;;;;10.15;3.00;;;;;;;22.20;55.66;101725.66;5060853;28;20056;-61
2023/07/13 18:35:21;;;;;;;8.43;2.97;;;;;;;22.21;56.13;101722.81;5056557;28;20028;-61
2023/07/13 18:37:46;;;;;;;7.28;2.70;;;;;;;22.18;56.44;101731.28;5058391;28;20020;-62
2023/07/13 18:40:16;;;;;;;4.97;2.88;;;;;;;22.19;56.61;101723.97;5061977;28;20081;-61
2023/07/13 18:42:47;;;;;;;5.18;2.90;;;;;;;22.18;56.66;101731.28;5057773;28;20024;-61
2023/07/13 18:45:15;;;;;;;8.25;2.88;;;;;;;22.18;56.74;101727.69;5055290;28;20082;-61
2023/07/13 18:47:42;;;;;;;6.20;2.88;;;;;;;22.17;57.07;101726.84;5020300;28;20060;-61
2023/07/13 18:50:32;;;;;;;5.10;2.58;;;;;;;22.17;56.81;101721.41;5054476;28;20040;-61
2023/07/13 18:52:57;;;;;;;6.63;2.60;;;;;;;22.15;56.50;101723.44;5049997;28;20458;-61
2023/07/13 18:55:24;;;;;;;11.10;3.00;;;;;;;22.15;56.68;101718.00;5050580;28;20123;-61
2023/07/13 18:57:58;;;;;;;7.30;2.65;;;;;;;22.14;56.37;101720.88;5052899;28;20573;-61
2023/07/13 19:00:28;;;;;;;6.93;2.80;;;;;;;22.10;57.09;101728.44;5047877;28;20463;-61
2023/07/13 19:02:57;;;;;;;4.35;2.28;;;;;;;22.12;57.10;101723.72;5052124;28;20031;-61
2023/07/13 19:05:25;;;;;;;6.03;2.55;;;;;;;22.09;57.29;101728.63;5048722;28;20047;-62
2023/07/13 19:07:52;;;;;;;6.80;3.10;;;;;;;22.09;57.24;101725.91;5058052;28;20486;-61
2023/07/13 19:10:21;;;;;;;4.07;2.40;;;;;;;22.05;57.70;101726.22;5051474;28;20052;-61
2023/07/13 19:12:58;;;;;;;7.65;2.88;;;;;;;22.05;57.66;101739.78;5056977;28;20492;-62
2023/07/13 19:15:30;;;;;;;6.88;2.40;;;;;;;22.07;57.61;101731.50;5058710;28;20111;-61
2023/07/13 19:17:57;;;;;;;4.70;2.47;;;;;;;22.05;57.13;101728.06;5052003;28;20060;-61
2023/07/13 19:20:24;;;;;;;5.20;2.80;;;;;;;22.06;57.30;101743.31;5053296;28;20017;-62
2023/07/13 19:22:56;;;;;;;6.78;2.88;;;;;;;22.04;57.26;101731.78;5054246;28;20322;-60
2023/07/13 19:25:23;;;;;;;6.22;2.95;;;;;;;22.03;57.63;101733.66;5048857;28;20047;-59
2023/07/13 19:28:14;;;;;;;4.57;2.08;;;;;;;22.03;57.41;101727.38;5055552;28;20039;-59
2023/07/13 19:30:40;;;;;;;8.20;2.70;;;;;;;22.02;57.54;101728.38;5057988;28;20060;-59
2023/07/13 19:33:06;;;;;;;6.07;2.90;;;;;;;22.02;57.57;101740.06;5034419;28;20107;-59
2023/07/13 19:35:33;;;;;;;3.92;2.80;;;;;;;22.02;58.03;101731.06;5057190;28;20086;-59
2023/07/13 19:37:59;;;;;;;2.63;2.33;;;;;;;22.02;57.80;101731.06;5050272;28;20029;-59
2023/07/13 19:40:28;;;;;;;6.63;2.92;;;;;;;22.01;57.48;101726.69;5056939;28;20044;-59
2023/07/13 19:42:54;;;;;;;4.90;2.70;;;;;;;22.00;57.80;101730.38;5053073;28;20032;-59
2023/07/13 19:45:22;;;;;;;3.85;2.35;;;;;;;22.00;57.72;101736.66;5060896;28;20032;-59
2023/07/13 19:47:49;;;;;;;8.52;3.20;;;;;;;21.98;58.36;101732.41;5054483;28;20032;-59
2023/07/13 19:50:16;;;;;;;6.15;2.75;;;;;;;21.98;58.24;101744.09;5054260;28;20083;-59
2023/07/13 19:52:45;;;;;;;6.13;3.13;;;;;;;21.97;58.48;101736.97;5056657;28;20025;-59
2023/07/13 19:55:14;;;;;;;4.03;2.58;;;;;;;21.98;58.33;101745.94;5051948;28;20033;-59
2023/07/13 19:57:40;;;;;;;4.82;2.80;;;;;;;21.96;58.76;101750.66;5051882;28;20438;-59
2023/07/13 20:00:14;;;;;;;7.38;2.97;;;;;;;21.96;58.26;101742.53;5053555;28;20025;-61
2023/07/13 20:02:41;;;;;;;4.95;2.83;;;;;;;21.94;58.62;101747.25;5054164;28;20394;-61
2023/07/13 20:05:07;;;;;;;6.60;3.10;;;;;;;21.93;58.14;101757.22;5054058;28;20039;-61
2023/07/13 20:07:32;;;;;;;5.65;3.03;;;;;;;21.92;58.08;101758.25;5053940;28;20036;-61
2023/07/13 20:09:58;;;;;;;3.58;2.90;;;;;;;21.91;58.48;101759.25;5053363;28;20052;-62
2023/07/13 20:12:25;;;;;;;3.72;2.40;;;;;;;21.85;58.74;101765.28;5052317;28;20037;-61
2023/07/13 20:14:52;;;;;;;5.50;2.80;;;;;;;21.82;58.61;101763.72;5056645;28;20029;-61
2023/07/13 20:17:35;;;;;;;4.70;3.00;;;;;;;21.82;58.97;101761.00;5053288;28;20056;-61
2023/07/13 20:20:15;;;;;;;6.05;3.33;;;;;;;21.79;58.76;101768.59;5049023;28;20041;-61
2023/07/13 20:22:40;;;;;;;5.10;3.08;;;;;;;21.78;58.54;101770.44;5048979;28;20040;-61
2023/07/13 20:25:15;;;;;;;7.15;3.20;;;;;;;21.76;59.00;101758.91;5056186;28;20469;-61
2023/07/13 20:27:40;;;;;;;6.85;3.15;;;;;;;21.75;58.51;101764.47;5052671;28;20029;-61
2023/07/13 20:30:07;;;;;;;5.18;2.63;;;;;;;21.71;58.18;101753.06;5057217;28;20117;-61
2023/07/13 20:32:38;;;;;;;7.03;3.05;;;;;;;21.71;58.16;101753.06;5051107;28;20037;-61
2023/07/13 20:35:20;;;;;;;4.75;2.63;;;;;;;21.68;58.98;101753.34;5048547;28;20537;-61
2023/07/13 20:37:50;;;;;;;8.23;2.90;;;;;;;21.67;58.83;101755.22;5029509;28;20033;-62
2023/07/13 20:40:21;;;;;;;4.00;2.70;;;;;;;21.65;58.95;101759.09;5048297;28;20032;-61
2023/07/13 20:42:47;;;;;;;7.53;2.85;;;;;;;21.63;58.98;101766.53;5044024;28;20086;-61
2023/07/13 20:45:13;;;;;;;8.48;3.58;;;;;;;21.62;58.80;101764.78;5049843;28;20093;-61
2023/07/13 20:47:40;;;;;;;7.88;3.20;;;;;;;21.63;58.92;101761.09;5056326;28;20452;-61
2023/07/13 20:50:27;;;;;;;11.00;3.58;;;;;;;21.64;58.72;101760.06;5030539;28;20079;-61
2023/07/13 20:52:59;;;;;;;5.45;2.97;;;;;;;21.58;58.57;101757.97;5056911;28;20458;-61
2023/07/13 20:55:28;;;;;;;6.70;3.35;;;;;;;21.56;58.63;101759.97;5053572;28;20498;-61
2023/07/13 20:57:54;;;;;;;5.07;3.60;;;;;;;21.54;58.87;101761.97;5054700;28;20471;-61
2023/07/13 21:00:24;;;;;;;4.80;2.80;;;;;;;21.54;58.42;101764.69;5055876;28;20466;-61
2023/07/13 21:03:03;;;;;;;6.30;2.92;;;;;;;21.52;58.91;101764.00;5055739;28;20035;-62
2023/07/13 21:05:40;;;;;;;4.13;3.00;;;;;;;21.48;58.46;101766.97;5055876;28;20033;-61
2023/07/13 21:08:13;;;;;;;5.70;3.22;;;;;;;21.46;58.31;101771.69;5054741;28;20032;-61
2023/07/13 21:10:39;;;;;;;4.32;3.28;;;;;;;21.43;58.46;101769.22;5052785;28;20047;-61
2023/07/13 21:13:07;;;;;;;5.90;3.47;;;;;;;21.42;58.88;101767.53;5046470;28;20032;-61
2023/07/13 21:15:34;;;;;;;9.85;3.65;;;;;;;21.36;58.57;101765.44;5057699;28;20029;-62
2023/07/13 21:18:00;;;;;;;5.47;3.20;;;;;;;21.33;58.50;101757.56;5053959;28;20033;-62
2023/07/13 21:20:37;;;;;;;7.18;2.97;;;;;;;21.32;59.01;101761.28;5037265;28;20025;-62
2023/07/13 21:23:03;;;;;;;6.32;3.78;;;;;;;21.27;59.28;101767.13;5055319;28;20429;-61
2023/07/13 21:25:31;;;;;;;5.00;2.97;;;;;;;21.25;59.49;101768.31;5061919;28;20048;-62
2023/07/13 21:27:58;;;;;;;5.88;3.22;;;;;;;21.23;59.74;101765.72;5059889;28;20039;-61
2023/07/13 21:30:36;;;;;;;6.75;3.35;;;;;;;21.24;59.71;101772.00;5059813;28;20082;-62
2023/07/13 21:33:02;;;;;;;5.57;3.38;;;;;;;21.23;59.46;101770.31;5058342;28;20111;-62
2023/07/13 21:35:32;;;;;;;7.50;3.25;;;;;;;21.23;59.47;101776.56;5057485;28;20029;-61
2023/07/13 21:37:59;;;;;;;6.13;3.33;;;;;;;21.21;60.02;101783.09;5055815;28;20031;-61
2023/07/13 21:40:28;;;;;;;5.85;3.20;;;;;;;21.19;59.61;101790.53;5058698;28;20106;-61
2023/07/13 21:42:53;;;;;;;6.95;3.72;;;;;;;21.12;60.61;101794.84;5059934;28;20063;-62
2023/07/13 21:45:22;;;;;;;6.05;3.30;;;;;;;21.13;60.82;101788.41;5058194;28;20064;-61
2023/07/13 21:47:52;;;;;;;4.47;3.30;;;;;;;21.10;61.14;101784.13;5057858;28;20025;-61
2023/07/13 21:50:19;;;;;;;6.88;3.40;;;;;;;21.12;61.13;101784.00;5055752;28;20117;-61
2023/07/13 21:52:45;;;;;;;5.75;3.38;;;;;;;21.09;61.15;101782.41;5055360;28;20040;-61
2023/07/13 21:55:26;;;;;;;6.72;3.17;;;;;;;21.12;60.92;101787.56;5057267;28;20047;-61
2023/07/13 21:57:54;;;;;;;6.72;3.72;;;;;;;21.09;61.94;101785.13;5060245;28;20040;-61
2023/07/13 22:00:24;;;;;;;6.32;4.15;;;;;;;21.14;62.15;101784.72;5059901;28;20029;-61
2023/07/13 22:02:54;;;;;;;8.73;4.53;;;;;;;21.12;62.47;101786.72;5062616;28;20033;-61
2023/07/13 22:05:21;;;;;;;6.75;4.75;;;;;;;21.11;62.34;101776.84;5061275;28;20482;-61
2023/07/13 22:07:47;;;;;;;7.57;4.25;;;;;;;21.11;62.59;101782.28;5061685;28;20032;-61
2023/07/13 22:10:20;;;;;;;6.57;4.13;;;;;;;21.08;62.48;101778.84;5058388;28;20522;-61
2023/07/13 22:12:47;;;;;;;7.20;4.72;;;;;;;21.07;63.08;101777.13;5056779;28;20383;-61
2023/07/13 22:15:15;;;;;;;8.10;4.85;;;;;;;21.05;63.04;101778.28;5057424;28;20437;-61
2023/07/13 22:17:49;;;;;;;7.22;5.15;;;;;;;21.07;63.02;101777.13;5056091;28;20082;-61
2023/07/13 22:20:21;;;;;;;6.80;4.38;;;;;;;21.05;63.37;101768.31;5057013;28;20065;-61
2023/07/13 22:22:46;;;;;;;;;;;;;;;21.15;61.72;101772.84;5059637;28;20126;-61
2023/07/13 22:25:12;;;;;;;8.02;4.47;;;;;;;21.06;63.40;101772.72;5060497;28;20011;-61
2023/07/13 22:27:38;;;;;;;8.65;4.05;;;;;;;21.05;63.37;101762.88;5062942;28;20033;-61
2023/07/13 22:30:06;;;;;;;8.27;5.10;;;;;;;21.03;63.45;101759.47;5063446;28;20064;-61
2023/07/13 22:32:32;;;;;;;5.68;4.50;;;;;;;21.02;63.44;101763.19;5058640;28;20158;-61
2023/07/13 22:34:58;;;;;;;9.75;4.70;;;;;;;21.02;63.39;101763.19;5060932;28;20158;-61
2023/07/13 22:37:23;;;;;;;6.45;5.22;;;;;;;21.03;63.71;101764.03;5062915;28;20633;-61
2023/07/13 22:39:49;;;;;;;6.95;5.43;;;;;;;21.03;63.62;101764.88;5061601;28;20047;-61
2023/07/13 22:42:14;;;;;;;5.85;4.45;;;;;;;21.02;63.57;101756.94;5058371;28;20057;-61
2023/07/13 22:44:41;;;;;;;12.20;5.05;;;;;;;21.01;63.33;101766.88;5060207;28;20043;-61
2023/07/13 22:47:15;;;;;;;5.82;4.88;;;;;;;20.98;63.08;101767.19;5058548;28;20067;-61
2023/07/13 22:49:40;;;;;;;5.78;4.35;;;;;;;20.94;63.20;101763.03;5058235;28;20036;-61
2023/07/13 22:52:10;;;;;;;7.80;4.82;;;;;;;20.91;63.76;101755.22;5062630;28;20033;-61
2023/07/13 22:54:36;;;;;;;5.80;4.50;;;;;;;20.93;63.69;101766.75;5058197;28;20029;-61
2023/07/13 22:57:02;;;;;;;5.90;4.80;;;;;;;20.92;63.71;101764.19;5060862;28;20029;-61
2023/07/13 22:59:27;;;;;;;5.05;4.63;;;;;;;20.90;64.03;101761.63;5061968;28;20467;-61
2023/07/13 23:01:54;;;;;;;6.75;5.35;;;;;;;20.89;63.77;101757.22;5059798;28;20035;-61
2023/07/13 23:04:25;;;;;;;7.43;5.13;;;;;;;20.89;63.77;101751.81;5062715;28;20029;-61
2023/07/13 23:06:52;;;;;;;6.70;5.20;;;;;;;20.87;64.07;101760.06;5057495;28;20029;-61
2023/07/13 23:09:19;;;;;;;9.23;6.20;;;;;;;20.87;64.07;101749.25;5057330;28;20076;-61
2023/07/13 23:11:45;;;;;;;5.93;4.55;;;;;;;20.88;63.81;101752.78;5063511;28;20123;-61
2023/07/13 23:14:11;;;;;;;8.48;5.38;;;;;;;20.89;63.92;101746.41;5062413;28;20538;-61
2023/07/13 23:16:37;;;;;;;8.32;5.00;;;;;;;20.92;63.67;101750.66;5060064;28;20036;-60
2023/07/13 23:19:03;;;;;;;7.43;5.60;;;;;;;20.89;63.77;101747.25;5060830;28;20021;-61
2023/07/13 23:21:29;;;;;;;6.97;5.07;;;;;;;20.89;63.42;101744.53;5060553;28;20119;-61
2023/07/13 23:23:55;;;;;;;6.72;4.80;;;;;;;20.88;64.03;101750.09;5057773;28;20025;-61
2023/07/13 23:26:23;;;;;;;9.40;5.85;;;;;;;20.90;63.48;101745.38;5059370;28;20037;-61
2023/07/13 23:28:50;;;;;;;8.13;5.85;;;;;;;20.86;63.26;101747.50;5060789;28;20036;-61
2023/07/13 23:31:25;;;;;;;10.30;5.82;;;;;;;20.84;62.87;101745.97;5059286;28;20082;-61
2023/07/13 23:33:51;;;;;;;7.47;5.97;;;;;;;20.81;63.40;101748.94;5061760;28;20110;-61
2023/07/13 23:36:19;;;;;;;7.05;5.32;;;;;;;20.79;63.06;101740.09;5059877;28;20041;-61
2023/07/13 23:38:45;;;;;;;7.97;5.47;;;;;;;20.77;63.65;101736.69;5059916;28;20088;-61
2023/07/13 23:41:16;;;;;;;6.72;6.03;;;;;;;20.74;63.57;101727.03;5057495;28;20464;-61
2023/07/13 23:43:42;;;;;;;;;;;;;;;20.85;62.59;101734.16;5060282;28;20028;-61
2023/07/13 23:46:31;;;;;;;9.15;5.45;;;;;;;20.76;63.18;101729.59;5057962;28;20290;-61
2023/07/13 23:49:25;;;;;;;7.40;5.15;;;;;;;20.75;63.06;101728.72;5057730;28;20029;-61
2023/07/13 23:51:54;;;;;;;8.32;5.00;;;;;;;20.70;63.51;101729.16;5049072;28;20439;-61
2023/07/13 23:54:20;;;;;;;7.38;4.95;;;;;;;20.68;63.38;101725.75;5056761;28;20021;-61
2023/07/13 23:56:46;;;;;;;7.82;5.35;;;;;;;20.67;63.74;101720.47;5055984;28;20470;-61
2023/07/13 23:59:11;;;;;;;9.48;6.03;;;;;;;20.68;63.55;101727.59;5057344;28;20056;-61
